createdAt,value
2022-08-14T00:00:05.692Z,42.40
2022-08-14T00:02:32.462Z,43.00
2022-08-14T00:04:59.392Z,42.80
2022-08-14T00:07:26.449Z,42.90
2022-08-14T00:10:01.963Z,42.40
2022-08-14T00:12:47.968Z,41.90
2022-08-14T00:15:25.460Z,43.20
2022-08-14T00:17:57.263Z,43.00
2022-08-14T00:20:30.965Z,43.00
2022-08-14T00:23:12.610Z,43.30
2022-08-14T00:25:53.738Z,43.70
2022-08-14T00:28:26.533Z,43.80
2022-08-14T00:31:00.701Z,43.00
2022-08-14T00:33:50.671Z,42.90
2022-08-14T00:36:37.002Z,43.80
2022-08-14T00:39:04.013Z,42.10
2022-08-14T00:41:33.516Z,41.40
2022-08-14T00:44:00.706Z,42.10
2022-08-14T00:46:32.774Z,43.00
2022-08-14T00:49:00.304Z,43.70
2022-08-14T00:51:37.936Z,44.70
2022-08-14T00:54:11.020Z,45.10
2022-08-14T00:56:44.422Z,44.40
2022-08-14T00:59:11.169Z,44.10
2022-08-14T01:01:39.746Z,44.60
2022-08-14T01:04:08.563Z,44.20
2022-08-14T01:06:55.493Z,42.40
2022-08-14T01:09:22.237Z,44.50
2022-08-14T01:11:57.310Z,43.80
2022-08-14T01:14:29.325Z,43.10
2022-08-14T01:16:58.082Z,43.30
2022-08-14T01:19:26.698Z,42.90
2022-08-14T01:21:55.036Z,41.90
2022-08-14T01:24:24.852Z,43.50
2022-08-14T01:26:58.460Z,44.40
2022-08-14T01:29:40.408Z,44.00
2022-08-14T01:32:15.948Z,43.40
2022-08-14T01:35:20.334Z,43.60
2022-08-14T01:37:44.018Z,44.10
2022-08-14T01:40:11.947Z,45.10
2022-08-14T01:42:42.539Z,43.80
2022-08-14T01:45:11.501Z,43.40
2022-08-14T01:47:38.352Z,44.50
2022-08-14T01:50:05.829Z,44.30
2022-08-14T01:52:59.143Z,44.10
2022-08-14T01:55:23.114Z,42.20
2022-08-14T01:58:00.974Z,42.90
2022-08-14T02:00:37.357Z,43.60
2022-08-14T02:03:06.743Z,44.20
2022-08-14T02:05:38.021Z,43.50
2022-08-14T02:08:09.146Z,43.30
2022-08-14T02:10:46.666Z,44.10
2022-08-14T02:13:15.902Z,45.30
2022-08-14T02:15:43.517Z,44.10
2022-08-14T02:18:11.692Z,43.80
2022-08-14T02:20:38.883Z,42.90
2022-08-14T02:23:08.196Z,42.50
2022-08-14T02:25:35.173Z,43.90
2022-08-14T02:28:24.027Z,42.80
2022-08-14T02:30:52.676Z,43.50
2022-08-14T02:33:19.814Z,43.50
2022-08-14T02:35:53.442Z,43.90
2022-08-14T02:38:29.946Z,44.30
2022-08-14T02:40:57.448Z,44.80
2022-08-14T02:43:25.606Z,44.70
2022-08-14T02:46:03.695Z,44.70
2022-08-14T02:49:03.722Z,45.70
2022-08-14T02:51:17.173Z,45.50
2022-08-14T02:53:46.466Z,44.60
2022-08-14T02:56:30.453Z,44.40
2022-08-14T02:59:06.594Z,44.40
2022-08-14T03:01:43.508Z,44.00
2022-08-14T03:04:17.521Z,43.80
2022-08-14T03:06:57.151Z,44.50
2022-08-14T03:10:25.007Z,44.50
2022-08-14T03:12:31.416Z,44.10
2022-08-14T03:15:01.225Z,45.00
2022-08-14T03:17:31.669Z,45.30
2022-08-14T03:19:59.256Z,44.60
2022-08-14T03:22:26.445Z,44.40
2022-08-14T03:24:54.666Z,43.90
2022-08-14T03:27:21.370Z,44.20
2022-08-14T03:29:53.174Z,44.20
2022-08-14T03:32:21.233Z,43.30
2022-08-14T03:34:58.546Z,44.10
2022-08-14T03:37:37.768Z,44.90
2022-08-14T03:40:17.613Z,44.30
2022-08-14T03:42:45.647Z,45.70
2022-08-14T03:45:18.905Z,46.10
2022-08-14T03:48:01.795Z,46.20
2022-08-14T03:50:31.677Z,46.60
2022-08-14T03:53:00.660Z,47.10
2022-08-14T03:55:27.858Z,45.20
2022-08-14T03:57:54.754Z,44.20
2022-08-14T04:00:43.548Z,43.80
2022-08-14T04:03:10.928Z,44.50
2022-08-14T04:05:42.643Z,46.80
2022-08-14T04:08:23.052Z,46.60
2022-08-14T04:10:56.474Z,46.90
2022-08-14T04:13:24.068Z,44.90
2022-08-14T04:15:56.733Z,43.90
2022-08-14T04:18:29.895Z,43.80
2022-08-14T04:20:56.700Z,43.70
2022-08-14T04:23:29.850Z,44.70
2022-08-14T04:26:03.803Z,44.60
2022-08-14T04:29:05.332Z,45.40
2022-08-14T04:32:56.562Z,44.60
2022-08-14T04:34:07.970Z,46.00
2022-08-14T04:36:36.744Z,46.40
2022-08-14T04:39:03.873Z,47.30
2022-08-14T04:41:31.014Z,48.00
2022-08-14T04:43:58.033Z,48.30
2022-08-14T04:46:55.572Z,47.90
2022-08-14T04:49:14.992Z,48.50
2022-08-14T04:51:46.655Z,48.30
2022-08-14T04:54:22.312Z,47.40
2022-08-14T04:56:51.295Z,47.00
2022-08-14T04:59:22.030Z,46.60
2022-08-14T05:01:53.911Z,46.00
2022-08-14T05:04:24.484Z,45.90
2022-08-14T05:06:54.208Z,46.00
2022-08-14T05:09:22.973Z,47.40
2022-08-14T05:11:49.685Z,48.00
2022-08-14T05:14:45.674Z,47.40
2022-08-14T05:17:05.696Z,46.30
2022-08-14T05:19:36.452Z,46.40
2022-08-14T05:22:16.581Z,47.50
2022-08-14T05:24:48.716Z,48.10
2022-08-14T05:27:16.855Z,48.40
2022-08-14T05:29:43.594Z,48.90
2022-08-14T05:32:10.420Z,49.20
2022-08-14T05:34:38.457Z,49.50
2022-08-14T05:37:06.964Z,49.80
2022-08-14T05:39:33.828Z,49.80
2022-08-14T05:42:00.919Z,49.60
2022-08-14T05:44:36.839Z,49.50
2022-08-14T05:47:03.702Z,49.80
2022-08-14T05:49:33.162Z,49.60
2022-08-14T05:52:02.694Z,49.60
2022-08-14T05:54:35.250Z,49.60
2022-08-14T05:57:02.828Z,49.50
2022-08-14T05:59:36.770Z,49.80
2022-08-14T06:02:06.706Z,49.80
2022-08-14T06:04:33.393Z,49.90
2022-08-14T06:07:00.174Z,49.80
2022-08-14T06:09:28.200Z,49.50
2022-08-14T06:11:56.617Z,48.90
2022-08-14T06:14:24.692Z,48.30
2022-08-14T06:16:53.530Z,48.40
2022-08-14T06:19:20.330Z,47.80
2022-08-14T06:21:55.840Z,48.60
2022-08-14T06:24:26.117Z,48.90
2022-08-14T06:27:03.731Z,47.80
2022-08-14T06:29:32.261Z,48.90
2022-08-14T06:32:37.502Z,49.40
2022-08-14T06:35:04.466Z,49.80
2022-08-14T06:37:42.172Z,50.20
2022-08-14T06:40:25.710Z,50.00
2022-08-14T06:42:57.016Z,49.80
2022-08-14T06:45:27.665Z,50.50
2022-08-14T06:47:55.128Z,50.20
2022-08-14T06:50:28.184Z,51.30
2022-08-14T06:52:55.791Z,50.30
2022-08-14T06:55:27.639Z,50.00
2022-08-14T06:57:57.612Z,50.50
2022-08-14T07:00:27.245Z,49.70
2022-08-14T07:02:57.473Z,49.70
2022-08-14T07:05:24.807Z,49.40
2022-08-14T07:07:52.098Z,49.70
2022-08-14T07:10:18.953Z,48.70
2022-08-14T07:13:01.877Z,48.80
2022-08-14T07:15:33.959Z,48.50
2022-08-14T07:18:02.071Z,49.60
2022-08-14T07:20:31.907Z,50.00
2022-08-14T07:23:03.730Z,49.40
2022-08-14T07:25:34.868Z,49.00
2022-08-14T07:28:09.552Z,49.90
2022-08-14T07:30:50.454Z,48.90
2022-08-14T07:33:20.907Z,49.00
2022-08-14T07:35:58.387Z,48.70
2022-08-14T07:38:28.145Z,48.80
2022-08-14T07:40:59.041Z,48.70
2022-08-14T07:43:25.747Z,48.40
2022-08-14T07:45:54.266Z,48.90
2022-08-14T07:48:24.829Z,48.70
2022-08-14T07:50:52.085Z,48.50
2022-08-14T07:53:19.473Z,48.60
2022-08-14T07:55:46.557Z,48.70
2022-08-14T07:58:34.573Z,49.40
2022-08-14T08:01:07.773Z,47.60
2022-08-14T08:03:38.625Z,47.50
2022-08-14T08:06:06.860Z,47.50
2022-08-14T08:08:37.630Z,47.00
2022-08-14T08:11:08.585Z,46.90
2022-08-14T08:13:49.036Z,46.70
2022-08-14T08:16:23.065Z,45.80
2022-08-14T08:18:53.100Z,45.70
2022-08-14T08:21:27.176Z,45.70
2022-08-14T08:24:00.278Z,45.00
2022-08-14T08:26:30.949Z,44.60
2022-08-14T08:28:58.591Z,44.30
2022-08-14T08:31:32.899Z,43.50
2022-08-14T08:34:05.175Z,43.80
2022-08-14T08:36:40.469Z,43.50
2022-08-14T08:39:16.835Z,43.10
2022-08-14T08:41:49.375Z,42.60
2022-08-14T08:44:32.824Z,42.20
2022-08-14T08:47:03.537Z,42.20
2022-08-14T08:49:43.327Z,42.20
2022-08-14T08:52:25.165Z,41.90
2022-08-14T08:54:56.511Z,41.50
2022-08-14T08:57:24.219Z,41.60
2022-08-14T08:59:54.969Z,41.30
2022-08-14T09:02:27.612Z,41.00
2022-08-14T09:05:02.255Z,40.30
2022-08-14T09:07:29.148Z,40.10
2022-08-14T09:10:00.163Z,39.70
2022-08-14T09:12:32.572Z,39.70
2022-08-14T09:15:09.028Z,39.10
2022-08-14T09:17:42.068Z,39.70
2022-08-14T09:20:11.792Z,39.30
2022-08-14T09:22:47.813Z,39.40
2022-08-14T09:25:16.223Z,38.80
2022-08-14T09:27:43.304Z,38.60
2022-08-14T09:30:31.099Z,38.10
2022-08-14T09:33:25.246Z,38.60
2022-08-14T09:36:07.101Z,38.00
2022-08-14T09:38:45.116Z,37.80
2022-08-14T09:42:21.953Z,37.80
2022-08-14T09:44:29.549Z,37.50
2022-08-14T09:47:01.077Z,37.00
2022-08-14T09:49:40.024Z,36.60
2022-08-14T09:52:33.535Z,36.00
2022-08-14T09:54:57.313Z,36.20
2022-08-14T09:57:29.361Z,36.50
2022-08-14T09:59:57.815Z,35.90
2022-08-14T10:02:29.729Z,35.80
2022-08-14T10:05:08.790Z,36.40
2022-08-14T10:07:41.273Z,35.60
2022-08-14T10:10:23.978Z,35.50
2022-08-14T10:12:53.067Z,35.30
2022-08-14T10:15:24.205Z,34.40
2022-08-14T10:18:03.921Z,34.70
2022-08-14T10:20:40.605Z,34.60
2022-08-14T10:23:16.087Z,34.80
2022-08-14T10:25:52.946Z,34.40
2022-08-14T10:28:39.287Z,34.20
2022-08-14T10:31:25.786Z,34.90
2022-08-14T10:34:12.814Z,34.50
2022-08-14T10:36:47.553Z,33.60
2022-08-14T10:39:17.991Z,34.20
2022-08-14T10:41:46.586Z,33.30
2022-08-14T10:44:22.740Z,32.70
2022-08-14T10:47:39.642Z,32.10
2022-08-14T10:49:42.466Z,31.80
2022-08-14T10:52:19.408Z,31.30
2022-08-14T10:54:48.907Z,31.40
2022-08-14T10:57:25.314Z,33.20
2022-08-14T10:59:55.884Z,31.70
2022-08-14T11:02:44.789Z,32.40
2022-08-14T11:05:15.506Z,32.30
2022-08-14T11:07:56.556Z,30.80
2022-08-14T11:10:25.290Z,31.50
2022-08-14T11:12:56.841Z,30.60
2022-08-14T11:15:25.388Z,30.40
2022-08-14T11:17:52.310Z,29.80
2022-08-14T11:20:20.492Z,30.40
2022-08-14T11:22:57.934Z,30.00
2022-08-14T11:25:36.923Z,29.90
2022-08-14T11:28:14.697Z,29.40
2022-08-14T11:30:53.468Z,30.00
2022-08-14T11:33:23.099Z,29.60
2022-08-14T11:35:50.358Z,29.60
2022-08-14T11:38:18.541Z,28.90
2022-08-14T11:40:46.808Z,28.80
2022-08-14T11:43:15.692Z,29.00
2022-08-14T11:45:47.566Z,29.80
2022-08-14T11:49:01.989Z,29.00
2022-08-14T11:51:12.626Z,29.70
2022-08-14T11:53:42.052Z,29.60
2022-08-14T11:56:11.165Z,29.20
2022-08-14T11:58:38.601Z,29.00
2022-08-14T12:01:07.482Z,29.30
2022-08-14T12:03:46.661Z,29.40
2022-08-14T12:06:29.082Z,29.00
2022-08-14T12:09:04.695Z,29.70
2022-08-14T12:11:43.453Z,28.90
2022-08-14T12:14:13.490Z,28.80
2022-08-14T12:17:00.447Z,28.70
2022-08-14T12:19:29.323Z,29.40
2022-08-14T12:22:00.774Z,29.40
2022-08-14T12:24:35.674Z,29.20
2022-08-14T12:27:03.981Z,29.10
2022-08-14T12:29:31.823Z,29.60
2022-08-14T12:32:00.788Z,29.20
2022-08-14T12:34:31.519Z,29.50
2022-08-14T12:37:03.244Z,29.10
2022-08-14T12:39:40.196Z,28.20
2022-08-14T12:42:08.137Z,29.10
2022-08-14T12:44:37.440Z,29.00
2022-08-14T12:47:06.659Z,29.20
2022-08-14T12:49:34.238Z,28.20
2022-08-14T12:52:02.558Z,29.50
2022-08-14T12:54:32.255Z,28.70
2022-08-14T12:57:07.375Z,28.10
2022-08-14T12:59:37.053Z,29.10
2022-08-14T13:02:21.914Z,29.10
2022-08-14T13:04:54.070Z,28.90
2022-08-14T13:07:20.903Z,28.70
2022-08-14T13:09:54.887Z,28.50
2022-08-14T13:12:32.308Z,29.50
2022-08-14T13:15:08.688Z,28.20
2022-08-14T13:17:44.715Z,28.80
2022-08-14T13:20:24.200Z,27.70
2022-08-14T13:22:53.165Z,27.00
2022-08-14T13:25:24.110Z,27.80
2022-08-14T13:27:54.563Z,28.40
2022-08-14T13:30:24.201Z,28.10
2022-08-14T13:32:52.474Z,27.30
2022-08-14T13:35:22.451Z,26.90
2022-08-14T13:37:52.124Z,27.10
2022-08-14T13:40:26.503Z,27.50
2022-08-14T13:42:54.786Z,27.90
2022-08-14T13:45:24.169Z,26.50
2022-08-14T13:48:01.041Z,26.30
2022-08-14T13:50:27.806Z,26.80
2022-08-14T13:52:57.960Z,26.60
2022-08-14T13:55:29.377Z,25.80
2022-08-14T13:58:03.975Z,26.40
2022-08-14T14:00:35.384Z,26.40
2022-08-14T14:03:04.327Z,25.50
2022-08-14T14:05:53.151Z,25.40
2022-08-14T14:08:45.599Z,25.80
2022-08-14T14:11:10.460Z,25.90
2022-08-14T14:13:38.155Z,25.80
2022-08-14T14:16:11.914Z,26.40
2022-08-14T14:18:42.818Z,26.20
2022-08-14T14:21:10.041Z,26.50
2022-08-14T14:23:37.989Z,26.10
2022-08-14T14:26:06.322Z,26.50
2022-08-14T14:28:43.780Z,26.40
2022-08-14T14:31:11.563Z,26.80
2022-08-14T14:33:47.635Z,26.80
2022-08-14T14:36:21.259Z,26.20
2022-08-14T14:38:52.627Z,26.60
2022-08-14T14:41:21.220Z,26.80
2022-08-14T14:43:51.515Z,26.50
2022-08-14T14:46:19.855Z,26.60
2022-08-14T14:48:54.072Z,26.30
2022-08-14T14:51:21.976Z,26.30
2022-08-14T14:53:49.144Z,26.50
2022-08-14T14:56:51.752Z,25.40
2022-08-14T14:59:04.956Z,27.30
2022-08-14T15:01:34.731Z,26.40
2022-08-14T15:04:07.785Z,26.00
2022-08-14T15:06:34.957Z,26.30
2022-08-14T15:09:02.221Z,25.60
2022-08-14T15:11:32.094Z,25.80
2022-08-14T15:13:59.024Z,25.70
2022-08-14T15:16:28.580Z,25.30
2022-08-14T15:18:55.441Z,25.60
2022-08-14T15:21:22.823Z,25.30
2022-08-14T15:23:49.807Z,24.40
2022-08-14T15:26:23.410Z,25.10
2022-08-14T15:29:02.021Z,25.00
2022-08-14T15:31:31.010Z,24.80
2022-08-14T15:34:33.411Z,24.40
2022-08-14T15:36:45.052Z,25.80
2022-08-14T15:39:13.523Z,25.40
2022-08-14T15:41:42.172Z,25.90
2022-08-14T15:44:24.561Z,25.60
2022-08-14T15:46:55.565Z,25.20
2022-08-14T15:49:22.555Z,24.80
2022-08-14T15:51:50.992Z,25.30
2022-08-14T15:54:17.941Z,25.50
2022-08-14T15:56:57.250Z,25.50
2022-08-14T15:59:25.507Z,25.60
2022-08-14T16:01:55.683Z,25.80
2022-08-14T16:04:23.704Z,25.70
2022-08-14T16:06:54.855Z,25.50
2022-08-14T16:09:22.681Z,25.40
2022-08-14T16:11:53.467Z,25.60
2022-08-14T16:14:21.434Z,25.30
2022-08-14T16:16:51.247Z,25.80
2022-08-14T16:19:25.993Z,25.70
2022-08-14T16:22:01.659Z,26.20
2022-08-14T16:25:00.120Z,26.60
2022-08-14T16:27:39.079Z,26.10
2022-08-14T16:30:10.872Z,25.80
2022-08-14T16:32:55.667Z,25.70
2022-08-14T16:35:26.454Z,25.80
2022-08-14T16:40:56.700Z,26.30
2022-08-14T16:43:23.626Z,26.50
2022-08-14T16:45:53.833Z,26.30
2022-08-14T16:48:56.953Z,26.20
2022-08-14T16:51:09.296Z,26.10
2022-08-14T16:53:36.322Z,26.40
2022-08-14T16:56:23.125Z,26.30
2022-08-14T16:59:04.927Z,26.20
2022-08-14T17:01:32.052Z,26.40
2022-08-14T17:04:02.117Z,26.50
2022-08-14T17:06:43.017Z,26.70
2022-08-14T17:09:33.179Z,26.60
2022-08-14T17:12:07.659Z,26.90
2022-08-14T17:14:50.770Z,26.80
2022-08-14T17:17:19.928Z,26.90
2022-08-14T17:19:47.167Z,27.10
2022-08-14T17:22:42.467Z,27.30
2022-08-14T17:25:09.278Z,27.10
2022-08-14T17:27:38.819Z,27.20
2022-08-14T17:30:06.529Z,27.40
2022-08-14T17:32:57.549Z,27.30
2022-08-14T17:35:27.200Z,27.20
2022-08-14T17:38:38.773Z,27.00
2022-08-14T17:41:17.029Z,27.20
2022-08-14T17:43:43.790Z,27.30
2022-08-14T17:46:34.670Z,27.40
2022-08-14T17:49:14.297Z,27.60
2022-08-14T17:51:58.729Z,27.80
2022-08-14T17:54:34.574Z,27.80
2022-08-14T17:57:10.451Z,28.00
2022-08-14T17:59:42.104Z,27.80
2022-08-14T18:02:10.594Z,28.00
2022-08-14T18:04:44.076Z,28.20
2022-08-14T18:07:50.514Z,28.20
2022-08-14T18:10:31.947Z,28.10
2022-08-14T18:12:49.968Z,28.30
2022-08-14T18:15:17.666Z,28.60
2022-08-14T18:17:52.534Z,28.60
2022-08-14T18:21:42.864Z,29.00
2022-08-14T18:23:10.506Z,28.70
2022-08-14T18:25:45.925Z,28.50
2022-08-14T18:28:17.970Z,28.40
2022-08-14T18:31:41.990Z,29.20
2022-08-14T18:34:13.633Z,28.60
2022-08-14T18:37:09.676Z,28.60
2022-08-14T18:40:03.211Z,28.70
2022-08-14T18:42:44.600Z,28.80
2022-08-14T18:45:19.051Z,29.00
2022-08-14T18:48:14.773Z,28.80
2022-08-14T18:50:48.385Z,29.10
2022-08-14T18:53:15.845Z,29.20
2022-08-14T18:55:53.830Z,29.50
2022-08-14T18:58:31.596Z,29.40
2022-08-14T19:01:01.197Z,29.60
2022-08-14T19:03:59.474Z,29.70
2022-08-14T19:06:37.745Z,29.80
2022-08-14T19:09:05.098Z,29.90
2022-08-14T19:11:46.259Z,30.10
2022-08-14T19:14:46.304Z,30.10
2022-08-14T19:17:43.001Z,30.30
2022-08-14T19:20:48.338Z,30.50
2022-08-14T19:23:18.215Z,30.70
2022-08-14T19:25:54.424Z,30.90
2022-08-14T19:28:31.256Z,31.10
2022-08-14T19:31:42.013Z,31.10
2022-08-14T19:34:09.572Z,31.20
2022-08-14T19:37:05.745Z,32.00
2022-08-14T19:39:47.285Z,31.90
2022-08-14T19:42:28.295Z,32.10
2022-08-14T19:44:57.775Z,32.30
2022-08-14T19:47:38.529Z,32.20
2022-08-14T19:50:31.125Z,32.40
2022-08-14T19:53:03.293Z,33.60
2022-08-14T19:55:45.607Z,32.80
2022-08-14T19:58:13.340Z,32.80
2022-08-14T20:00:52.689Z,32.70
2022-08-14T20:03:25.379Z,33.20
2022-08-14T20:05:58.565Z,33.50
2022-08-14T20:09:05.935Z,33.50
2022-08-14T20:12:00.481Z,33.20
2022-08-14T20:14:20.413Z,33.60
2022-08-14T20:16:52.378Z,34.10
2022-08-14T20:19:28.649Z,34.10
2022-08-14T20:22:04.485Z,34.00
2022-08-14T20:24:45.881Z,33.50
2022-08-14T20:27:37.274Z,34.70
2022-08-14T20:32:59.134Z,34.30
2022-08-14T20:35:35.743Z,34.10
2022-08-14T20:38:29.283Z,34.20
2022-08-14T20:40:54.201Z,34.90
2022-08-14T20:43:25.125Z,34.70
2022-08-14T20:45:52.287Z,35.00
2022-08-14T20:48:51.370Z,35.40
2022-08-14T20:51:23.818Z,35.00
2022-08-14T20:54:00.706Z,34.90
2022-08-14T20:56:28.598Z,35.30
2022-08-14T20:58:56.722Z,35.50
2022-08-14T21:01:33.625Z,35.20
2022-08-14T21:04:04.963Z,35.30
2022-08-14T21:07:23.227Z,35.80
2022-08-14T21:10:05.327Z,35.80
2022-08-14T21:12:34.907Z,35.70
2022-08-14T21:15:01.041Z,35.70
2022-08-14T21:17:29.517Z,35.80
2022-08-14T21:19:59.466Z,35.70
2022-08-14T21:22:48.015Z,35.60
2022-08-14T21:25:15.048Z,35.90
2022-08-14T21:27:56.595Z,36.20
2022-08-14T21:30:46.597Z,36.40
2022-08-14T21:33:12.876Z,36.70
2022-08-14T21:35:40.991Z,36.90
2022-08-14T21:38:08.943Z,36.50
2022-08-14T21:40:47.626Z,36.30
2022-08-14T21:43:18.928Z,36.30
2022-08-14T21:45:53.614Z,36.20
2022-08-14T21:48:25.180Z,35.60
2022-08-14T21:51:00.673Z,35.80
2022-08-14T21:53:34.475Z,36.30
2022-08-14T21:56:03.228Z,37.50
2022-08-14T21:58:52.612Z,36.70
2022-08-14T22:01:17.913Z,36.10
2022-08-14T22:03:54.637Z,36.30
2022-08-14T22:06:28.643Z,36.60
2022-08-14T22:08:57.053Z,37.90
2022-08-14T22:11:24.442Z,36.90
2022-08-14T22:13:52.200Z,36.70
2022-08-14T22:17:01.828Z,38.10
2022-08-14T22:19:13.769Z,37.50
2022-08-14T22:21:44.163Z,38.80
2022-08-14T22:24:11.999Z,37.30
2022-08-14T22:26:59.250Z,37.40
2022-08-14T22:29:26.599Z,37.00
2022-08-14T22:31:53.529Z,37.80
2022-08-14T22:34:23.793Z,38.40
2022-08-14T22:36:50.785Z,38.40
2022-08-14T22:39:19.992Z,37.20
2022-08-14T22:42:21.108Z,37.40
2022-08-14T22:44:51.068Z,37.40
2022-08-14T22:47:18.560Z,38.80
2022-08-14T22:50:28.748Z,38.40
2022-08-14T22:52:40.481Z,39.80
2022-08-14T22:55:16.350Z,39.60
2022-08-14T22:57:43.964Z,39.50
2022-08-14T23:00:15.055Z,40.00
2022-08-14T23:02:43.772Z,40.30
2022-08-14T23:05:12.135Z,40.40
2022-08-14T23:08:56.074Z,39.30
2022-08-14T23:10:31.997Z,39.00
2022-08-14T23:13:00.075Z,38.50
2022-08-14T23:15:30.257Z,38.60
2022-08-14T23:17:57.322Z,38.80
2022-08-14T23:20:29.719Z,38.70
2022-08-14T23:22:57.487Z,40.40
2022-08-14T23:25:45.833Z,38.90
2022-08-14T23:28:34.157Z,40.20
2022-08-14T23:31:05.538Z,40.80
2022-08-14T23:33:33.931Z,39.30
2022-08-14T23:36:02.685Z,39.80
2022-08-14T23:38:31.439Z,38.60
2022-08-14T23:40:58.714Z,38.50
2022-08-14T23:43:28.143Z,40.30
2022-08-14T23:45:58.351Z,40.30
2022-08-14T23:48:28.232Z,39.50
2022-08-14T23:50:56.171Z,40.00
2022-08-14T23:53:28.253Z,40.00
2022-08-14T23:56:16.004Z,40.30
2022-08-14T23:58:49.150Z,39.50
